Time;durP1;ratioP1;P1;durP2;ratioP2;P2;SDS_P1;SDS_P2;PMS_P1;PMS_P2;Temp;Humidity;BMP_temperature;BMP_pressure;BME280_temperature;BME280_humidity;BME280_pressure;Samples;Min_cycle;Max_cycle;Signal;HPM_P1;HPM_P2
2022/08/18 00:00:14;;;;;;;120.10;76.28;;;19.30;99.90;;;;;;5077286;28;20028;-61
2022/08/18 00:02:41;;;;;;;115.40;74.55;;;19.30;99.90;;;;;;5077225;28;20040;-61
2022/08/18 00:05:11;;;;;;;111.60;71.85;;;19.30;99.90;;;;;;5077182;28;20040;-61
2022/08/18 00:07:37;;;;;;;119.65;75.95;;;19.30;99.90;;;;;;5077203;28;20035;-61
2022/08/18 00:10:04;;;;;;;111.07;71.53;;;19.30;99.90;;;;;;5077096;28;20036;-60
2022/08/18 00:12:34;;;;;;;103.18;67.95;;;19.40;99.90;;;;;;5077008;28;20068;-61
2022/08/18 00:15:03;;;;;;;103.88;68.78;;;19.30;99.90;;;;;;5077041;28;20106;-61
2022/08/18 00:17:29;;;;;;;107.18;69.40;;;19.20;99.90;;;;;;5077829;28;20024;-61
2022/08/18 00:19:55;;;;;;;101.35;66.57;;;19.20;99.90;;;;;;5076256;28;20423;-61
2022/08/18 00:22:21;;;;;;;103.13;67.25;;;19.20;99.90;;;;;;5077017;28;20420;-61
2022/08/18 00:24:51;;;;;;;107.55;69.97;;;19.20;99.90;;;;;;5076219;28;20063;-61
2022/08/18 00:27:20;;;;;;;100.53;65.57;;;19.30;99.90;;;;;;5077417;28;20032;-60
2022/08/18 00:29:46;;;;;;;103.13;66.60;;;19.30;99.90;;;;;;5076298;28;20032;-61
2022/08/18 00:32:15;;;;;;;106.28;66.97;;;19.30;99.90;;;;;;5076703;28;20025;-61
2022/08/18 00:34:41;;;;;;;98.40;63.13;;;19.30;99.90;;;;;;5076799;28;20108;-62
2022/08/18 00:37:07;;;;;;;95.90;61.03;;;19.20;99.90;;;;;;5076111;28;20128;-61
2022/08/18 00:39:33;;;;;;;97.80;61.55;;;19.10;99.90;;;;;;5075908;28;20032;-60
2022/08/18 00:42:10;;;;;;;83.05;56.33;;;19.00;99.90;;;;;;5076094;28;20033;-60
2022/08/18 00:44:36;;;;;;;76.80;51.63;;;19.10;99.90;;;;;;5076988;28;20025;-60
2022/08/18 00:47:02;;;;;;;78.45;54.05;;;19.10;99.90;;;;;;5075957;28;20032;-61
2022/08/18 00:49:28;;;;;;;75.43;50.97;;;19.20;99.90;;;;;;5076972;28;20067;-61
2022/08/18 00:51:55;;;;;;;77.93;51.58;;;19.20;99.90;;;;;;5076766;28;20052;-61
2022/08/18 00:54:27;;;;;;;82.72;51.83;;;19.20;99.90;;;;;;5076885;28;20033;-61
2022/08/18 00:57:01;;;;;;;79.28;52.58;;;19.30;99.90;;;;;;5075851;28;20036;-60
2022/08/18 00:59:48;;;;;;;70.25;49.40;;;19.20;99.90;;;;;;5075923;28;20123;-61
2022/08/18 01:02:21;;;;;;;73.50;49.63;;;19.20;99.90;;;;;;5075861;28;20087;-61
2022/08/18 01:05:01;;;;;;;65.70;47.33;;;19.20;99.90;;;;;;5076846;28;20169;-61
2022/08/18 01:07:35;;;;;;;74.32;48.95;;;19.10;99.90;;;;;;5076842;28;20097;-61
2022/08/18 01:10:03;;;;;;;73.85;50.03;;;19.10;99.90;;;;;;5076521;28;20040;-61
2022/08/18 01:12:29;;;;;;;71.47;49.00;;;19.20;99.90;;;;;;5076390;28;20119;-60
2022/08/18 01:14:55;;;;;;;69.72;49.92;;;19.20;99.90;;;;;;5076433;28;20351;-61
2022/08/18 01:23:11;;;;;;;68.38;48.05;;;19.20;99.90;;;;;;5076456;28;20090;-61
2022/08/18 01:28:22;;;;;;;70.65;48.05;;;19.10;99.90;;;;;;5076808;28;20113;-61
2022/08/18 01:30:57;;;;;;;73.05;48.08;;;19.20;99.90;;;;;;5076233;28;20040;-61
2022/08/18 01:33:43;;;;;;;66.10;45.63;;;19.10;99.90;;;;;;5076185;28;20028;-61
2022/08/18 01:36:19;;;;;;;69.82;47.03;;;19.10;99.90;;;;;;5076575;28;20017;-60
2022/08/18 01:38:52;;;;;;;66.85;45.85;;;19.00;99.90;;;;;;5075531;28;20048;-60
2022/08/18 01:41:20;;;;;;;65.18;46.55;;;19.10;99.90;;;;;;5076292;28;20388;-61
2022/08/18 01:43:47;;;;;;;67.82;48.03;;;19.00;99.90;;;;;;5076502;28;20108;-60
2022/08/18 01:46:19;;;;;;;71.18;49.13;;;19.00;99.90;;;;;;5076407;28;20437;-60
2022/08/18 01:48:47;;;;;;;67.95;47.70;;;19.00;99.90;;;;;;5075482;28;20099;-60
2022/08/18 01:51:14;;;;;;;67.18;46.92;;;18.90;99.90;;;;;;5078576;28;20040;-60
2022/08/18 01:53:40;;;;;;;64.05;46.85;;;18.70;99.90;;;;;;5079591;28;20074;-60
2022/08/18 01:56:07;;;;;;;67.40;47.55;;;18.70;99.90;;;;;;5079973;28;20040;-61
2022/08/18 01:58:34;;;;;;;66.30;47.63;;;18.70;99.90;;;;;;5079906;28;20054;-61
2022/08/18 02:01:01;;;;;;;68.45;48.88;;;18.70;99.90;;;;;;5079946;28;20031;-60
2022/08/18 02:03:51;;;;;;;64.10;46.60;;;18.80;99.90;;;;;;5079445;28;20036;-61
2022/08/18 02:06:18;;;;;;;68.38;46.58;;;18.80;99.90;;;;;;5079476;28;20091;-61
2022/08/18 02:08:45;;;;;;;59.92;45.60;;;18.80;99.90;;;;;;5079363;28;20028;-61
2022/08/18 02:11:11;;;;;;;59.50;44.22;;;19.00;99.90;;;;;;5079168;28;20025;-60
2022/08/18 02:13:38;;;;;;;67.10;45.17;;;19.00;99.90;;;;;;5079287;28;20055;-59
2022/08/18 02:16:04;;;;;;;59.28;43.38;;;19.20;99.90;;;;;;5079258;28;20029;-60
2022/08/18 02:18:32;;;;;;;59.60;43.97;;;19.30;99.90;;;;;;5079657;28;20009;-60
2022/08/18 02:21:10;;;;;;;59.10;44.22;;;19.30;99.90;;;;;;5078999;28;20044;-60
2022/08/18 02:23:37;;;;;;;60.50;43.28;;;19.40;99.90;;;;;;5079030;28;20027;-60
2022/08/18 02:26:05;;;;;;;53.03;41.40;;;19.30;99.90;;;;;;5079048;28;20107;-60
2022/08/18 02:28:31;;;;;;;57.97;43.08;;;19.20;99.90;;;;;;5078264;28;20024;-61
2022/08/18 02:30:56;;;;;;;58.22;44.45;;;19.10;99.90;;;;;;5079308;28;20074;-60
2022/08/18 02:33:22;;;;;;;63.17;44.97;;;19.10;99.90;;;;;;5078927;28;20062;-59
2022/08/18 02:35:54;;;;;;;58.70;44.85;;;19.00;99.90;;;;;;5079267;28;20035;-59
2022/08/18 02:38:19;;;;;;;54.35;41.33;;;18.90;99.90;;;;;;5078831;28;20033;-60
2022/08/18 02:40:45;;;;;;;60.25;42.10;;;18.70;99.90;;;;;;5078780;28;20124;-60
2022/08/18 02:43:11;;;;;;;56.83;42.17;;;18.70;99.90;;;;;;5078732;28;20329;-60
2022/08/18 02:45:38;;;;;;;57.10;41.92;;;18.80;99.90;;;;;;5078666;28;20028;-59
2022/08/18 02:48:05;;;;;;;50.70;39.63;;;18.70;99.90;;;;;;5078592;28;20040;-60
2022/08/18 02:50:32;;;;;;;53.38;40.20;;;18.80;99.90;;;;;;5077766;28;20028;-60
2022/08/18 02:52:57;;;;;;;59.35;41.72;;;18.70;99.90;;;;;;5078455;28;20344;-60
2022/08/18 02:55:25;;;;;;;60.63;43.30;;;18.80;99.90;;;;;;5078463;28;20059;-60
2022/08/18 02:57:51;;;;;;;68.68;46.97;;;18.70;99.90;;;;;;5078477;28;20108;-60
2022/08/18 03:00:18;;;;;;;68.82;47.05;;;18.70;99.90;;;;;;5078510;28;20423;-60
2022/08/18 03:02:50;;;;;;;73.68;48.97;;;18.70;99.90;;;;;;5077543;28;20032;-60
2022/08/18 03:05:17;;;;;;;;;;;18.60;99.90;;;;;;5078696;28;20041;-60
2022/08/18 03:07:43;;;;;;;60.05;43.85;;;18.60;99.90;;;;;;5078257;28;19908;-60
2022/08/18 03:10:10;;;;;;;75.80;51.47;;;18.60;99.90;;;;;;5078215;28;20123;-60
2022/08/18 03:12:35;;;;;;;79.47;54.88;;;18.50;99.90;;;;;;5077301;28;20036;-64
2022/08/18 03:15:02;;;;;;;76.53;54.20;;;18.50;99.90;;;;;;5078135;28;20035;-60
2022/08/18 03:17:28;;;;;;;78.32;53.85;;;18.40;99.90;;;;;;5078083;28;20024;-60
2022/08/18 03:19:54;;;;;;;81.88;55.53;;;18.30;99.90;;;;;;5077998;28;20030;-60
2022/08/18 03:22:20;;;;;;;81.38;56.70;;;18.30;99.90;;;;;;5077945;28;20076;-59
2022/08/18 03:24:45;;;;;;;82.22;59.45;;;18.30;99.90;;;;;;5077875;28;20036;-61
2022/08/18 03:27:11;;;;;;;84.07;60.20;;;18.20;99.90;;;;;;5077182;28;20068;-60
2022/08/18 03:29:37;;;;;;;88.05;61.58;;;18.20;99.90;;;;;;5076985;28;20042;-60
2022/08/18 03:32:05;;;;;;;82.50;59.42;;;18.10;99.90;;;;;;5076938;28;20036;-60
2022/08/18 03:34:31;;;;;;;94.18;64.88;;;18.20;99.90;;;;;;5077694;28;20103;-61
2022/08/18 03:36:58;;;;;;;88.57;59.80;;;18.20;99.90;;;;;;5077624;28;20085;-59
2022/08/18 03:39:26;;;;;;;83.40;58.13;;;18.30;99.90;;;;;;5077573;28;20032;-59
2022/08/18 03:41:53;;;;;;;92.97;63.55;;;18.30;99.90;;;;;;5076683;28;20040;-59
2022/08/18 03:44:20;;;;;;;86.78;59.40;;;18.30;99.90;;;;;;5077642;28;20021;-60
2022/08/18 03:46:46;;;;;;;86.32;59.33;;;18.30;99.90;;;;;;5077435;28;20047;-60
2022/08/18 03:49:13;;;;;;;100.63;64.38;;;18.30;99.90;;;;;;5077349;28;20043;-62
2022/08/18 03:51:48;;;;;;;98.78;64.70;;;18.30;99.90;;;;;;5077280;28;20044;-60
2022/08/18 03:54:15;;;;;;;100.55;66.50;;;18.30;99.90;;;;;;5077337;28;20356;-60
2022/08/18 03:56:43;;;;;;;98.97;64.47;;;18.30;99.90;;;;;;5077559;28;20115;-60
2022/08/18 03:59:12;;;;;;;96.80;63.90;;;18.20;99.90;;;;;;5076525;28;20109;-59
2022/08/18 04:01:40;;;;;;;95.35;63.00;;;18.10;99.90;;;;;;5077131;28;20039;-60
2022/08/18 04:04:10;;;;;;;98.75;64.07;;;18.10;99.90;;;;;;5077199;28;20040;-60
2022/08/18 04:06:57;;;;;;;96.03;64.55;;;18.10;99.90;;;;;;5077184;28;20037;-60
2022/08/18 04:09:26;;;;;;;100.95;65.22;;;18.10;99.90;;;;;;5077200;28;20116;-59
2022/08/18 04:11:52;;;;;;;96.25;64.90;;;18.10;99.90;;;;;;5077013;28;20329;-59
2022/08/18 04:14:22;;;;;;;98.85;65.70;;;17.90;99.90;;;;;;5077289;28;20355;-60
2022/08/18 04:16:48;;;;;;;98.20;64.45;;;17.80;99.90;;;;;;5077098;28;20028;-59
2022/08/18 04:19:15;;;;;;;91.72;63.60;;;17.70;99.90;;;;;;5076258;28;20423;-59
2022/08/18 04:21:42;;;;;;;88.45;61.55;;;17.70;99.90;;;;;;5076762;28;20113;-59
2022/08/18 04:24:10;;;;;;;84.82;60.08;;;17.70;99.90;;;;;;5077274;28;20040;-59
2022/08/18 04:26:40;;;;;;;87.63;61.63;;;17.80;99.90;;;;;;5076937;28;20086;-61
2022/08/18 04:29:07;;;;;;;86.40;60.75;;;18.00;99.90;;;;;;5076109;28;20064;-60
2022/08/18 04:31:32;;;;;;;86.72;59.00;;;18.20;99.90;;;;;;5076846;28;20040;-59
2022/08/18 04:34:00;;;;;;;83.28;58.85;;;18.40;99.90;;;;;;5076891;28;20085;-60
2022/08/18 04:36:27;;;;;;;85.25;60.17;;;18.40;99.90;;;;;;5076771;28;20025;-60
2022/08/18 04:38:54;;;;;;;84.13;57.50;;;18.30;99.90;;;;;;5076593;28;20021;-59
2022/08/18 04:41:23;;;;;;;74.85;54.75;;;18.30;99.90;;;;;;5076531;28;20339;-60
2022/08/18 04:43:50;;;;;;;77.85;55.78;;;18.40;99.90;;;;;;5076619;28;20038;-60
2022/08/18 04:46:16;;;;;;;84.97;57.83;;;18.50;99.90;;;;;;5076423;28;20049;-61
2022/08/18 04:48:42;;;;;;;76.68;54.35;;;18.70;99.90;;;;;;5082178;23;20119;-60
2022/08/18 04:51:10;;;;;;;81.40;57.72;;;18.80;99.90;;;;;;5076815;28;20071;-60
2022/08/18 04:53:46;;;;;;;82.10;57.72;;;18.80;99.90;;;;;;5076502;28;20044;-61
2022/08/18 04:56:25;;;;;;;76.50;54.15;;;18.70;99.90;;;;;;5076473;28;20327;-60
2022/08/18 04:59:07;;;;;;;76.50;54.45;;;18.70;99.90;;;;;;5075772;28;20128;-62
2022/08/18 05:01:39;;;;;;;78.43;54.30;;;18.60;99.90;;;;;;5076813;28;20055;-60
2022/08/18 05:04:05;;;;;;;75.47;53.50;;;18.60;99.90;;;;;;5076547;28;20361;-60
2022/08/18 05:06:31;;;;;;;80.65;55.78;;;18.50;99.90;;;;;;5076561;28;20052;-60
2022/08/18 05:09:03;;;;;;;76.20;54.38;;;18.60;99.90;;;;;;5076481;28;20389;-60
2022/08/18 05:11:33;;;;;;;78.22;54.38;;;18.60;99.90;;;;;;5076513;28;20120;-60
2022/08/18 05:14:04;;;;;;;81.95;54.90;;;18.60;99.90;;;;;;5075621;28;20043;-60
2022/08/18 05:16:35;;;;;;;80.70;56.03;;;18.60;99.90;;;;;;5077100;28;20029;-60
2022/08/18 05:19:05;;;;;;;77.47;53.88;;;18.70;99.90;;;;;;5076431;28;20021;-60
2022/08/18 05:21:32;;;;;;;75.60;51.70;;;18.70;99.90;;;;;;5076421;28;20064;-64
2022/08/18 05:23:59;;;;;;;83.57;56.53;;;18.70;99.90;;;;;;5076387;28;20107;-61
2022/08/18 05:26:26;;;;;;;83.35;55.47;;;18.80;99.90;;;;;;5079395;28;20371;-60
2022/08/18 05:28:53;;;;;;;77.93;54.90;;;18.80;99.90;;;;;;5079756;28;20403;-61
2022/08/18 05:31:22;;;;;;;82.20;56.83;;;18.70;99.90;;;;;;5080038;28;20134;-60
2022/08/18 05:33:48;;;;;;;82.05;54.28;;;18.70;99.90;;;;;;5080022;28;20156;-61
2022/08/18 05:36:23;;;;;;;78.18;53.67;;;18.80;99.90;;;;;;5079995;28;20025;-61
2022/08/18 05:39:01;;;;;;;80.05;55.22;;;18.70;99.90;;;;;;5079374;28;20401;-61
2022/08/18 05:41:42;;;;;;;78.07;56.10;;;18.70;99.90;;;;;;5079925;28;20036;-60
2022/08/18 05:44:13;;;;;;;80.40;53.63;;;18.60;99.90;;;;;;5079008;28;20025;-62
2022/08/18 05:46:53;;;;;;;70.93;50.50;;;18.60;99.90;;;;;;5079836;28;20025;-58
2022/08/18 05:49:19;;;;;;;68.80;48.97;;;18.70;99.90;;;;;;5078891;28;20064;-58
2022/08/18 05:51:50;;;;;;;78.40;54.03;;;18.90;99.90;;;;;;5079653;28;20032;-60
2022/08/18 05:57:17;;;;;;;89.82;59.15;;;19.10;99.90;;;;;;5079728;28;20382;-60
2022/08/18 05:59:45;;;;;;;86.75;58.70;;;19.10;99.90;;;;;;5079765;28;20024;-60
2022/08/18 06:02:25;;;;;;;87.55;59.20;;;19.00;99.90;;;;;;5079584;28;20024;-60
2022/08/18 06:04:55;;;;;;;82.43;57.50;;;19.00;99.90;;;;;;5079386;28;20314;-60
2022/08/18 06:07:43;;;;;;;87.25;59.47;;;18.90;99.90;;;;;;5078818;28;20033;-60
2022/08/18 06:10:11;;;;;;;80.90;57.35;;;18.80;99.90;;;;;;5078647;28;20056;-60
2022/08/18 06:12:41;;;;;;;79.90;57.45;;;18.60;99.90;;;;;;5079433;28;20346;-60
2022/08/18 06:15:30;;;;;;;81.97;56.72;;;18.50;99.90;;;;;;5079279;28;20043;-59
2022/08/18 06:18:22;;;;;;;77.55;57.20;;;18.50;99.90;;;;;;5079495;28;20396;-61
2022/08/18 06:21:15;;;;;;;77.40;56.30;;;18.60;99.90;;;;;;5079681;28;20047;-60
2022/08/18 06:23:49;;;;;;;;;;;18.70;99.90;;;;;;5078856;28;20048;-60
2022/08/18 06:26:32;;;;;;;74.18;53.15;;;18.80;99.90;;;;;;5079115;28;19909;-60
2022/08/18 06:29:24;;;;;;;72.57;52.30;;;18.90;99.90;;;;;;5079082;28;20356;-60
2022/08/18 06:32:13;;;;;;;70.22;51.47;;;19.00;99.90;;;;;;5071028;28;20036;-61
2022/08/18 06:35:01;;;;;;;75.53;52.05;;;19.10;99.90;;;;;;5079175;28;20082;-60
2022/08/18 06:37:30;;;;;;;63.65;48.97;;;18.90;99.90;;;;;;5077641;28;20104;-60
2022/08/18 06:39:56;;;;;;;66.32;49.53;;;18.80;99.90;;;;;;5078867;28;20028;-61
2022/08/18 06:42:29;;;;;;;66.60;48.92;;;18.90;99.90;;;;;;5079376;28;20024;-60
2022/08/18 06:45:03;;;;;;;65.10;48.38;;;19.00;99.90;;;;;;5078698;28;20028;-60
2022/08/18 06:47:43;;;;;;;64.05;48.85;;;19.10;99.90;;;;;;5078753;28;20047;-60
2022/08/18 06:50:41;;;;;;;54.90;43.58;;;19.40;99.90;;;;;;5078615;28;20049;-60
2022/08/18 06:53:07;;;;;;;51.78;41.70;;;19.60;99.90;;;;;;5078549;28;20038;-61
2022/08/18 06:55:35;;;;;;;58.55;44.30;;;19.90;99.90;;;;;;5078547;28;20036;-61
2022/08/18 06:58:06;;;;;;;58.78;45.92;;;20.10;99.90;;;;;;5078493;28;20414;-61
2022/08/18 07:00:35;;;;;;;56.15;43.28;;;20.20;99.90;;;;;;5078491;28;20349;-60
2022/08/18 07:03:13;;;;;;;53.80;42.95;;;20.20;99.90;;;;;;5079121;28;20032;-60
2022/08/18 07:06:01;;;;;;;51.10;40.22;;;20.30;99.90;;;;;;5078471;28;20032;-61
2022/08/18 07:08:31;;;;;;;50.67;40.20;;;20.60;99.90;;;;;;5077737;28;20024;-61
2022/08/18 07:11:21;;;;;;;55.05;39.92;;;20.80;99.90;;;;;;5078320;28;20039;-61
2022/08/18 07:13:50;;;;;;;47.33;36.65;;;21.00;99.90;;;;;;5078176;28;20066;-60
2022/08/18 07:16:30;;;;;;;50.35;36.58;;;21.20;99.90;;;;;;5078117;28;20020;-61
2022/08/18 07:19:19;;;;;;;38.85;32.35;;;21.40;99.90;;;;;;5077986;28;20115;-60
2022/08/18 07:21:59;;;;;;;32.28;27.60;;;21.60;99.90;;;;;;5078079;28;20450;-60
2022/08/18 07:24:30;;;;;;;29.98;25.77;;;21.50;99.90;;;;;;5077562;28;20067;-61
2022/08/18 07:27:10;;;;;;;29.10;25.17;;;21.40;99.90;;;;;;5079029;28;20399;-61
2022/08/18 07:30:05;;;;;;;29.23;22.45;;;21.60;99.90;;;;;;5078023;28;20186;-61
2022/08/18 07:33:06;;;;;;;26.40;21.40;;;21.90;99.90;;;;;;5074979;28;20095;-61
2022/08/18 07:35:38;;;;;;;21.60;19.00;;;22.10;99.90;;;;;;5076625;28;20111;-61
2022/08/18 07:38:16;;;;;;;20.15;17.85;;;22.30;99.90;;;;;;5078317;28;20056;-60
2022/08/18 07:41:01;;;;;;;19.63;16.73;;;22.60;99.90;;;;;;5076980;28;20029;-60
2022/08/18 07:43:33;;;;;;;15.15;13.65;;;22.80;99.90;;;;;;5077504;28;20029;-61
2022/08/18 07:46:19;;;;;;;14.27;12.23;;;23.00;99.90;;;;;;5078223;28;20046;-61
2022/08/18 07:48:45;;;;;;;11.82;10.63;;;23.20;99.90;;;;;;5076999;28;20428;-61
2022/08/18 07:51:24;;;;;;;11.23;10.02;;;23.30;99.90;;;;;;5077426;28;20134;-63
2022/08/18 07:54:21;;;;;;;10.07;9.05;;;23.40;99.90;;;;;;5077441;28;20289;-61
2022/08/18 07:56:56;;;;;;;10.63;9.63;;;23.70;99.90;;;;;;5077423;28;20433;-62
2022/08/18 07:59:38;;;;;;;12.10;10.30;;;23.90;99.90;;;;;;5077242;28;20024;-62
2022/08/18 08:02:26;;;;;;;11.30;9.55;;;24.20;99.90;;;;;;5077322;28;20036;-61
2022/08/18 08:04:57;;;;;;;11.20;10.00;;;24.30;99.90;;;;;;5077235;28;20024;-62
2022/08/18 08:07:29;;;;;;;11.55;9.32;;;24.50;99.90;;;;;;5077276;28;20036;-62
2022/08/18 08:10:20;;;;;;;8.52;7.40;;;24.50;99.90;;;;;;5077336;28;20028;-62
2022/08/18 08:13:09;;;;;;;11.30;9.30;;;24.80;99.90;;;;;;5076420;28;20086;-62
2022/08/18 08:15:59;;;;;;;11.07;10.00;;;24.90;99.90;;;;;;5077072;28;20430;-62
2022/08/18 08:18:34;;;;;;;9.10;8.18;;;25.30;99.90;;;;;;5077606;28;20115;-62
2022/08/18 08:21:07;;;;;;;12.68;8.30;;;25.50;99.90;;;;;;5076974;28;20036;-62
2022/08/18 08:24:07;;;;;;;12.15;10.90;;;25.30;99.90;;;;;;5077492;28;20347;-61
2022/08/18 08:27:05;;;;;;;10.02;9.02;;;25.20;99.90;;;;;;5076995;28;20476;-62
2022/08/18 08:30:00;;;;;;;8.27;7.57;;;25.20;99.90;;;;;;5076953;28;20269;-62
2022/08/18 08:32:34;;;;;;;7.88;7.10;;;25.40;99.90;;;;;;5073029;28;20048;-61
2022/08/18 08:35:36;;;;;;;9.30;6.68;;;25.70;99.90;;;;;;5077238;28;20483;-61
2022/08/18 08:38:16;;;;;;;8.75;7.63;;;25.80;99.90;;;;;;5077283;28;20025;-61
2022/08/18 08:40:59;;;;;;;6.88;6.32;;;25.30;99.90;;;;;;5076852;28;20120;-60
2022/08/18 08:43:39;;;;;;;10.98;9.88;;;25.20;99.90;;;;;;5077210;28;20340;-60
2022/08/18 08:46:30;;;;;;;9.43;8.63;;;25.00;99.90;;;;;;5076806;28;20064;-61
2022/08/18 08:49:06;;;;;;;14.05;11.85;;;25.10;99.90;;;;;;5076592;28;20335;-61
2022/08/18 08:51:45;;;;;;;10.98;9.88;;;25.30;99.90;;;;;;5075927;28;20098;-61
2022/08/18 08:54:18;;;;;;;9.05;8.18;;;25.50;99.90;;;;;;5076774;28;20064;-61
2022/08/18 08:56:47;;;;;;;11.30;7.93;;;25.60;99.90;;;;;;5077254;28;20089;-61
2022/08/18 08:59:16;;;;;;;8.77;7.30;;;25.40;99.90;;;;;;5076773;28;20039;-61
2022/08/18 09:02:00;;;;;;;9.43;7.43;;;25.40;99.90;;;;;;5080478;28;20024;-61
2022/08/18 09:04:26;;;;;;;12.95;6.50;;;25.40;99.90;;;;;;5079981;28;20032;-61
2022/08/18 09:07:05;;;;;;;9.80;8.32;;;25.30;99.90;;;;;;5080691;28;20497;-61
2022/08/18 09:09:53;;;;;;;9.75;8.95;;;25.60;99.90;;;;;;5080549;28;20103;-61
2022/08/18 09:12:53;;;;;;;13.57;12.13;;;25.60;99.90;;;;;;5080479;28;20075;-61
2022/08/18 09:15:41;;;;;;;13.80;12.40;;;25.00;99.90;;;;;;5080578;28;20035;-61
2022/08/18 09:18:43;;;;;;;13.65;12.27;;;24.30;99.90;;;;;;5080527;28;20360;-60
2022/08/18 09:21:34;;;;;;;13.93;12.20;;;23.60;99.90;;;;;;5080319;28;20056;-60
2022/08/18 09:24:15;;;;;;;19.58;13.32;;;23.60;99.90;;;;;;5080335;28;20024;-60
2022/08/18 09:27:12;;;;;;;13.93;12.43;;;23.50;99.90;;;;;;5080301;28;20090;-61
2022/08/18 09:29:38;;;;;;;14.77;10.82;;;23.50;99.90;;;;;;5079467;28;20329;-62
2022/08/18 09:32:19;;;;;;;12.65;11.35;;;23.80;99.90;;;;;;5080583;28;20040;-62
2022/08/18 09:34:59;;;;;;;13.52;12.13;;;24.20;99.90;;;;;;5079950;28;20031;-61
2022/08/18 09:37:38;;;;;;;17.35;15.45;;;24.30;99.90;;;;;;5080628;28;20032;-61
2022/08/18 09:43:34;;;;;;;18.25;16.38;;;24.70;99.90;;;;;;5080465;28;20064;-62
2022/08/18 09:46:03;;;;;;;17.80;15.98;;;24.70;99.90;;;;;;5075035;28;20273;-62
2022/08/18 09:48:36;;;;;;;18.83;16.83;;;24.80;99.90;;;;;;5079711;28;20053;-62
2022/08/18 09:51:14;;;;;;;21.10;17.65;;;25.20;99.90;;;;;;5079629;28;20036;-62
2022/08/18 09:53:46;;;;;;;21.08;18.73;;;25.40;99.90;;;;;;5079647;28;20115;-62
2022/08/18 09:56:36;;;;;;;21.77;19.55;;;25.60;99.90;;;;;;5079885;28;20349;-62
2022/08/18 09:59:03;;;;;;;23.10;20.80;;;25.40;99.90;;;;;;5079597;28;20104;-62
2022/08/18 10:01:30;;;;;;;20.98;18.95;;;24.90;99.90;;;;;;5078933;28;20051;-62
2022/08/18 10:04:14;;;;;;;23.10;20.83;;;24.80;99.90;;;;;;5079912;28;20047;-63
2022/08/18 10:06:42;;;;;;;29.00;23.40;;;24.40;99.90;;;;;;5079540;28;20032;-62
2022/08/18 10:09:43;;;;;;;28.35;22.52;;;23.60;99.90;;;;;;5079451;28;20119;-61
2022/08/18 10:12:37;;;;;;;23.83;21.33;;;23.60;99.90;;;;;;5077586;28;20040;-62
2022/08/18 10:15:20;;;;;;;28.58;25.52;;;24.40;99.90;;;;;;5079376;28;20296;-62
2022/08/18 10:17:51;;;;;;;24.02;21.55;;;24.30;99.90;;;;;;5079823;28;20165;-62
2022/08/18 10:20:38;;;;;;;22.27;20.08;;;24.50;99.90;;;;;;5079186;28;20028;-62
2022/08/18 10:23:06;;;;;;;23.33;21.05;;;25.10;99.90;;;;;;5079199;28;20431;-63
2022/08/18 10:25:41;;;;;;;21.65;18.27;;;25.90;99.90;;;;;;5079113;28;20032;-63
2022/08/18 10:28:31;;;;;;;20.88;18.67;;;26.60;99.90;;;;;;5079175;28;20410;-61
2022/08/18 10:31:04;;;;;;;23.52;20.65;;;26.60;99.90;;;;;;5078982;28;20300;-61
2022/08/18 10:33:59;;;;;;;24.40;21.70;;;26.60;99.90;;;;;;5078937;28;20169;-63
2022/08/18 10:36:49;;;;;;;24.13;20.88;;;26.30;99.90;;;;;;5078245;28;20043;-62
2022/08/18 10:39:26;;;;;;;19.70;17.67;;;26.50;99.90;;;;;;5078965;28;20311;-62
2022/08/18 10:42:01;;;;;;;18.23;16.40;;;26.80;99.90;;;;;;5078865;28;20407;-62
2022/08/18 10:44:30;;;;;;;18.10;16.30;;;27.30;99.90;;;;;;5078739;28;20116;-62
2022/08/18 10:46:58;;;;;;;22.70;20.50;;;27.50;99.90;;;;;;5078044;28;20037;-63
2022/08/18 10:49:27;;;;;;;23.25;20.88;;;26.80;99.90;;;;;;5078273;28;20062;-62
2022/08/18 10:52:05;;;;;;;19.95;18.15;;;26.10;99.90;;;;;;5077854;28;20040;-62
2022/08/18 10:55:01;;;;;;;18.23;16.23;;;25.80;99.90;;;;;;5078844;28;20056;-63
2022/08/18 10:57:39;;;;;;;17.58;15.77;;;26.60;99.90;;;;;;5078596;28;20032;-61
2022/08/18 11:00:18;;;;;;;17.88;16.08;;;28.10;99.90;;;;;;5077965;28;20438;-62
2022/08/18 11:03:07;;;;;;;13.45;12.25;;;30.10;99.90;;;;;;5079058;28;20043;-62
2022/08/18 11:05:33;;;;;;;13.65;11.75;;;30.90;99.90;;;;;;5078450;28;20052;-62
2022/08/18 11:08:12;;;;;;;13.50;11.80;;;31.20;99.90;;;;;;5077465;28;20036;-62
2022/08/18 11:10:47;;;;;;;8.43;7.72;;;31.50;99.90;;;;;;5078295;28;20028;-62
2022/08/18 11:13:24;;;;;;;9.75;8.90;;;31.50;99.90;;;;;;5078365;28;20028;-62
2022/08/18 11:16:12;;;;;;;7.82;7.22;;;31.40;99.90;;;;;;5078340;28;20032;-62
2022/08/18 11:19:14;;;;;;;6.40;5.82;;;31.40;99.90;;;;;;5078141;28;20044;-62
2022/08/18 11:21:44;;;;;;;7.25;6.40;;;31.00;99.90;;;;;;5077092;28;20312;-60
2022/08/18 11:24:19;;;;;;;6.45;5.85;;;30.70;99.90;;;;;;5076687;28;20032;-62
2022/08/18 11:26:51;;;;;;;6.43;5.78;;;30.60;99.90;;;;;;5078197;28;20155;-62
2022/08/18 11:29:27;;;;;;;7.43;6.70;;;30.50;99.90;;;;;;5077909;28;20071;-62
2022/08/18 11:32:13;;;;;;;6.20;5.70;;;31.00;99.90;;;;;;5077871;28;20028;-60
2022/08/18 11:34:46;;;;;;;6.32;5.78;;;31.20;99.90;;;;;;5077909;28;20300;-61
2022/08/18 11:37:37;;;;;;;6.60;6.00;;;31.10;99.90;;;;;;5077770;28;20035;-61
2022/08/18 11:40:24;;;;;;;5.85;5.35;;;31.20;99.90;;;;;;5077650;28;20032;-62
2022/08/18 11:42:58;;;;;;;6.13;5.28;;;30.80;99.90;;;;;;5077995;28;20266;-60
2022/08/18 11:45:31;;;;;;;6.28;5.78;;;30.00;99.90;;;;;;5077576;28;20036;-60
2022/08/18 11:48:14;;;;;;;5.45;4.68;;;30.10;99.90;;;;;;5076844;28;20103;-61
2022/08/18 11:50:52;;;;;;;5.85;5.32;;;29.90;99.90;;;;;;5077514;28;20056;-61
2022/08/18 11:53:31;;;;;;;6.80;6.13;;;29.70;99.90;;;;;;5078017;28;20032;-62
2022/08/18 11:56:12;;;;;;;5.60;5.20;;;29.70;99.90;;;;;;5076710;28;20032;-62
2022/08/18 11:58:58;;;;;;;6.78;6.28;;;29.80;99.90;;;;;;5077449;28;20033;-61
2022/08/18 12:01:42;;;;;;;8.07;7.28;;;30.00;99.90;;;;;;5077315;28;20044;-61
2022/08/18 12:04:49;;;;;;;7.53;6.70;;;30.00;99.90;;;;;;5077292;28;20330;-61
2022/08/18 12:07:25;;;;;;;6.13;5.63;;;31.00;99.90;;;;;;5074519;28;20301;-63
2022/08/18 12:10:29;;;;;;;5.93;5.13;;;33.00;99.90;;;;;;5077221;28;20033;-62
2022/08/18 12:12:59;;;;;;;7.22;4.70;;;33.80;99.90;;;;;;5055926;28;20084;-63
2022/08/18 12:15:31;;;;;;;5.68;5.05;;;35.10;97.70;;;;;;5038999;28;20032;-62
2022/08/18 12:17:57;;;;;;;4.95;4.55;;;36.40;93.20;;;;;;5067308;28;20400;-62
2022/08/18 12:20:23;;;;;;;5.75;4.53;;;37.90;85.90;;;;;;5077027;28;20189;-63
2022/08/18 12:22:49;;;;;;;5.97;5.07;;;37.30;80.30;;;;;;5077529;28;20041;-62
2022/08/18 12:25:18;;;;;;;5.85;4.80;;;36.40;86.10;;;;;;5077098;28;20386;-61
2022/08/18 12:27:43;;;;;;;6.68;6.00;;;36.30;86.80;;;;;;5077076;28;20035;-62
2022/08/18 12:30:11;;;;;;;5.53;5.03;;;36.30;82.80;;;;;;5077065;28;20028;-61
2022/08/18 12:32:37;;;;;;;6.35;5.75;;;34.70;88.70;;;;;;5076949;28;20036;-61
2022/08/18 12:35:05;;;;;;;5.15;4.72;;;33.50;91.00;;;;;;5076481;28;20342;-62
2022/08/18 12:37:31;;;;;;;5.30;4.88;;;32.50;94.40;;;;;;5076977;28;20075;-62
2022/08/18 12:39:57;;;;;;;5.30;4.75;;;31.90;95.00;;;;;;5076826;28;20415;-61
2022/08/18 12:42:24;;;;;;;5.63;5.15;;;31.50;95.20;;;;;;5076933;28;20428;-59
2022/08/18 12:44:51;;;;;;;6.03;4.90;;;31.30;96.80;;;;;;5077007;28;20292;-61
2022/08/18 12:47:21;;;;;;;5.50;5.10;;;31.50;96.00;;;;;;5076838;28;20042;-62
2022/08/18 12:49:47;;;;;;;5.00;4.60;;;33.00;93.60;;;;;;5076619;28;20174;-60
2022/08/18 12:52:13;;;;;;;5.20;4.80;;;34.00;90.90;;;;;;5076764;28;20032;-61
2022/08/18 12:54:42;;;;;;;7.90;4.82;;;31.60;95.20;;;;;;5076805;28;20031;-62
2022/08/18 12:57:18;;;;;;;5.43;4.80;;;31.40;97.30;;;;;;5076021;28;20033;-61
2022/08/18 12:59:43;;;;;;;5.28;4.78;;;31.90;96.60;;;;;;5076743;28;20043;-62
2022/08/18 13:02:10;;;;;;;5.00;4.60;;;34.50;89.80;;;;;;5076689;28;20300;-61
2022/08/18 13:04:36;;;;;;;4.95;4.55;;;36.60;83.40;;;;;;5075853;28;20110;-63
2022/08/18 13:07:03;;;;;;;5.05;4.60;;;36.60;77.20;;;;;;5076743;28;20041;-63
2022/08/18 13:09:31;;;;;;;5.32;4.93;;;37.90;78.60;;;;;;5076494;28;20084;-63
2022/08/18 13:11:57;;;;;;;5.22;4.72;;;38.70;70.10;;;;;;5076437;28;20040;-62
2022/08/18 13:14:23;;;;;;;4.85;4.45;;;37.90;73.40;;;;;;5076577;28;20029;-64
2022/08/18 13:16:50;;;;;;;3.95;3.65;;;36.70;75.50;;;;;;5076515;28;20174;-61
2022/08/18 13:19:16;;;;;;;4.63;4.22;;;36.90;78.00;;;;;;5076441;28;20025;-62